X  Luk Metar data     EKYT Aalborg
Temperatur
15°C Temperatur
6°C Duggpunkt
55% Fugtighed



Vind
3 M/S
7 MPT
11 KM/T
6 KNOB



250°
VSV
Nuværende forhold

Klart Klart
Tryk 989.92 (hPa) - 29.23 (inHg)
Sigt 6.2 (mil) - 10 (km)
Lufthavn
Lufthavnskode EKYT

Lokation: Aalborg
Afstand: 54 (km)

Metar:
EKYT 051550Z AUTO 25006KT 220V280 9999 NCD 15/06 Q0990

Tid: 05-06-2020 17:50 CEST